Terminal Aerodrome Forecast
Issued by NWS

Home | Current Version | Previous Version | Text Only | Print | Product List | Glossary On
Versions: 1 2 3 4 5 6 7 8 9 10 11 12 13 14 15
000
FTUS45 KABQ 271123
TAFGUP
TAF
KGUP 271123Z 2712/2812 VRB06KT P6SM SCT150
     FM271700 35006KT P6SM SCT070 SCT120
     FM272000 34008KT P6SM VCTS BKN080CB
      TEMPO 2720/2724 VRB20G30KT
     FM280300 18008KT P6SM VCSH BKN070
      TEMPO 2803/2806 -SHRA OVC050=

USA.gov is the U.S. government's official web portal to all federal, state and local government web resources and services.